createdAt,value
2022-11-19T00:01:39.047Z,43.55
2022-11-19T00:04:12.888Z,43.42
2022-11-19T00:06:43.699Z,43.28
2022-11-19T00:09:15.367Z,43.68
2022-11-19T00:12:02.247Z,43.49
2022-11-19T00:14:32.779Z,43.51
2022-11-19T00:17:03.987Z,43.60
2022-11-19T00:19:36.292Z,43.62
2022-11-19T00:22:06.459Z,43.47
2022-11-19T00:24:36.907Z,43.58
2022-11-19T00:27:08.057Z,43.43
2022-11-19T00:29:39.099Z,43.62
2022-11-19T00:32:09.809Z,43.45
2022-11-19T00:34:41.848Z,43.83
2022-11-19T00:37:12.519Z,43.21
2022-11-19T00:39:42.584Z,43.44
2022-11-19T00:42:13.526Z,43.10
2022-11-19T00:44:44.073Z,43.73
2022-11-19T00:47:14.705Z,43.31
2022-11-19T00:49:46.361Z,43.13
2022-11-19T00:52:16.660Z,43.22
2022-11-19T00:54:46.818Z,43.25
2022-11-19T00:57:17.575Z,43.31
2022-11-19T00:59:48.458Z,43.42
2022-11-19T01:02:19.031Z,43.03
2022-11-19T01:04:51.360Z,43.36
2022-11-19T01:07:21.923Z,43.37
2022-11-19T01:09:52.373Z,43.38
2022-11-19T01:12:22.871Z,43.05
2022-11-19T01:14:53.502Z,43.16
2022-11-19T01:17:23.434Z,43.38
2022-11-19T01:19:55.945Z,43.23
2022-11-19T01:22:26.137Z,43.26
2022-11-19T01:24:57.167Z,43.27
2022-11-19T01:27:27.624Z,43.29
2022-11-19T01:29:57.992Z,43.09
2022-11-19T01:32:28.311Z,43.28
2022-11-19T01:35:00.747Z,43.09
2022-11-19T01:37:31.383Z,43.23
2022-11-19T01:40:01.606Z,43.11
2022-11-19T01:42:54.959Z,43.03
2022-11-19T01:45:34.431Z,43.39
2022-11-19T01:48:11.354Z,43.21
2022-11-19T01:50:50.013Z,43.51
2022-11-19T01:53:22.777Z,43.13
2022-11-19T01:55:54.221Z,43.26
2022-11-19T01:58:27.034Z,43.40
2022-11-19T02:00:58.041Z,43.50
2022-11-19T02:03:33.037Z,43.50
2022-11-19T02:06:07.127Z,43.47
2022-11-19T02:08:50.441Z,43.56
2022-11-19T02:12:05.718Z,43.42
2022-11-19T02:15:08.497Z,43.15
2022-11-19T02:17:58.738Z,43.23
2022-11-19T02:21:14.941Z,43.06
2022-11-19T02:24:41.139Z,43.25
2022-11-19T02:28:02.408Z,43.39
2022-11-19T02:30:40.399Z,43.39
2022-11-19T02:33:21.161Z,43.31
2022-11-19T02:36:02.024Z,43.37
2022-11-19T02:38:42.918Z,43.30
2022-11-19T02:41:36.707Z,43.19
2022-11-19T02:44:37.149Z,43.31
2022-11-19T02:47:17.496Z,43.24
2022-11-19T02:49:49.224Z,43.39
2022-11-19T02:52:21.392Z,43.09
2022-11-19T02:54:51.353Z,43.41
2022-11-19T02:57:21.917Z,43.26
2022-11-19T03:00:16.463Z,43.06
2022-11-19T03:03:14.076Z,43.36
2022-11-19T03:05:52.476Z,43.39
2022-11-19T03:08:24.369Z,43.48
2022-11-19T03:11:09.991Z,43.67
2022-11-19T03:14:11.881Z,43.39
2022-11-19T03:16:50.884Z,43.60
2022-11-19T03:19:47.080Z,43.59
2022-11-19T03:22:25.544Z,43.35
2022-11-19T03:25:05.960Z,43.46
2022-11-19T03:27:44.025Z,43.43
2022-11-19T03:30:17.517Z,43.52
2022-11-19T03:32:53.475Z,43.44
2022-11-19T03:35:31.811Z,43.54
2022-11-19T03:38:08.679Z,43.13
2022-11-19T03:40:41.587Z,43.60
2022-11-19T03:43:17.307Z,43.65
2022-11-19T03:45:53.302Z,43.70
2022-11-19T03:48:26.483Z,43.42
2022-11-19T03:51:04.042Z,43.45
2022-11-19T03:53:34.703Z,43.31
2022-11-19T03:56:10.045Z,43.49
2022-11-19T03:58:43.669Z,43.64
2022-11-19T04:01:14.845Z,43.53
2022-11-19T04:04:05.996Z,43.40
2022-11-19T04:06:47.208Z,43.43
2022-11-19T04:09:17.849Z,43.56
2022-11-19T04:14:17.209Z,43.51
2022-11-19T04:16:47.890Z,43.60
2022-11-19T04:19:18.852Z,43.32
2022-11-19T04:21:51.256Z,43.49
2022-11-19T04:24:21.418Z,43.59
2022-11-19T04:26:52.058Z,43.65
2022-11-19T04:29:22.819Z,43.43
2022-11-19T04:31:53.032Z,43.57
2022-11-19T04:34:23.567Z,43.25
2022-11-19T04:36:58.258Z,43.46
2022-11-19T04:39:28.294Z,43.07
2022-11-19T04:41:58.328Z,43.18
2022-11-19T04:44:28.136Z,43.12
2022-11-19T04:46:58.745Z,43.14
2022-11-19T04:49:28.877Z,43.06
2022-11-19T04:52:01.450Z,43.11
2022-11-19T04:54:32.105Z,43.53
2022-11-19T04:57:02.178Z,43.56
2022-11-19T04:59:32.390Z,43.59
2022-11-19T05:02:02.680Z,43.70
2022-11-19T05:04:33.347Z,43.71
2022-11-19T05:07:05.803Z,43.83
2022-11-19T05:09:36.373Z,43.82
2022-11-19T05:12:08.084Z,43.88
2022-11-19T05:14:39.456Z,43.83
2022-11-19T05:17:10.183Z,43.87
2022-11-19T05:19:40.448Z,43.49
2022-11-19T05:22:13.520Z,43.77
2022-11-19T05:24:44.117Z,43.30
2022-11-19T05:27:14.881Z,43.19
2022-11-19T05:29:45.368Z,43.24
2022-11-19T05:32:15.488Z,43.14
2022-11-19T05:34:45.652Z,43.23
2022-11-19T05:37:18.155Z,43.16
2022-11-19T05:39:48.812Z,43.20
2022-11-19T05:42:19.518Z,43.21
2022-11-19T05:44:49.609Z,43.55
2022-11-19T05:47:20.109Z,43.46
2022-11-19T05:49:50.669Z,43.86
2022-11-19T05:52:23.270Z,43.96
2022-11-19T05:55:06.287Z,43.55
2022-11-19T05:57:37.507Z,43.80
2022-11-19T06:00:09.429Z,43.71
2022-11-19T06:02:40.167Z,43.52
2022-11-19T06:05:12.154Z,43.59
2022-11-19T06:07:45.101Z,43.32
2022-11-19T06:10:16.590Z,43.58
2022-11-19T06:12:47.472Z,43.56
2022-11-19T06:15:18.717Z,43.00
2022-11-19T06:17:49.005Z,43.09
2022-11-19T06:20:20.344Z,42.89
2022-11-19T06:22:53.287Z,42.80
2022-11-19T06:25:23.729Z,43.21
2022-11-19T06:27:54.197Z,42.67
2022-11-19T06:30:25.016Z,42.59
2022-11-19T06:32:55.566Z,42.22
2022-11-19T06:35:26.518Z,42.10
2022-11-19T06:37:58.330Z,42.26
2022-11-19T06:40:29.051Z,41.88
2022-11-19T06:42:58.619Z,41.60
2022-11-19T06:45:29.329Z,41.32
2022-11-19T06:48:00.001Z,41.23
2022-11-19T06:50:29.771Z,41.38
2022-11-19T06:53:02.366Z,41.53
2022-11-19T06:55:33.025Z,40.81
2022-11-19T06:58:05.722Z,40.44
2022-11-19T07:00:36.807Z,40.85
2022-11-19T07:03:07.894Z,40.32
2022-11-19T07:05:38.797Z,39.75
2022-11-19T07:08:11.400Z,40.27
2022-11-19T07:10:41.934Z,40.19
2022-11-19T07:13:12.542Z,39.62
2022-11-19T07:15:43.485Z,39.60
2022-11-19T07:18:14.518Z,40.09
2022-11-19T07:20:47.504Z,39.27
2022-11-19T07:23:20.725Z,38.93
2022-11-19T07:25:51.470Z,39.07
2022-11-19T07:28:21.465Z,39.03
2022-11-19T07:30:51.482Z,39.25
2022-11-19T07:33:21.959Z,38.87
2022-11-19T07:35:52.255Z,39.37
2022-11-19T07:38:24.386Z,38.56
2022-11-19T07:40:56.635Z,38.91
2022-11-19T07:43:25.716Z,38.94
2022-11-19T07:45:55.661Z,39.13
2022-11-19T07:48:26.240Z,39.00
2022-11-19T07:50:56.723Z,38.64
2022-11-19T07:53:29.464Z,38.64
2022-11-19T07:56:03.467Z,39.25
2022-11-19T07:58:33.932Z,38.99
2022-11-19T08:01:11.896Z,39.37
2022-11-19T08:03:45.792Z,38.91
2022-11-19T08:06:17.175Z,38.69
2022-11-19T08:08:50.637Z,38.31
2022-11-19T08:11:21.093Z,38.26
2022-11-19T08:13:51.816Z,38.48
2022-11-19T08:16:35.742Z,37.77
2022-11-19T08:19:09.033Z,37.53
2022-11-19T08:21:43.375Z,37.47
2022-11-19T08:24:18.225Z,36.63
2022-11-19T08:26:49.505Z,36.36
2022-11-19T08:29:24.156Z,36.31
2022-11-19T08:31:54.644Z,35.63
2022-11-19T08:34:25.485Z,35.45
2022-11-19T08:36:56.575Z,35.22
2022-11-19T08:39:32.369Z,34.45
2022-11-19T08:42:19.531Z,34.07
2022-11-19T08:44:50.474Z,34.31
2022-11-19T08:47:20.678Z,33.58
2022-11-19T08:49:51.339Z,33.39
2022-11-19T08:52:21.841Z,33.86
2022-11-19T08:54:56.054Z,33.52
2022-11-19T08:57:26.479Z,33.58
2022-11-19T08:59:59.130Z,32.95
2022-11-19T09:02:33.731Z,32.87
2022-11-19T09:05:04.649Z,33.29
2022-11-19T09:07:35.504Z,33.47
2022-11-19T09:10:09.175Z,33.06
2022-11-19T09:12:40.021Z,32.67
2022-11-19T09:15:12.331Z,32.77
2022-11-19T09:17:46.747Z,32.52
2022-11-19T09:20:17.969Z,32.48
2022-11-19T09:22:48.857Z,32.97
2022-11-19T09:25:21.670Z,32.66
2022-11-19T09:27:52.548Z,33.00
2022-11-19T09:30:23.417Z,32.68
2022-11-19T09:32:54.308Z,32.16
2022-11-19T09:35:23.963Z,32.72
2022-11-19T09:37:53.691Z,32.31
2022-11-19T09:40:26.547Z,32.84
2022-11-19T09:43:15.257Z,32.63
2022-11-19T09:46:02.185Z,32.53
2022-11-19T09:48:38.261Z,32.07
2022-11-19T09:51:15.383Z,32.46
2022-11-19T09:53:54.012Z,32.60
2022-11-19T09:56:36.180Z,31.99
2022-11-19T09:59:15.609Z,31.94
2022-11-19T10:01:46.353Z,32.17
2022-11-19T10:04:18.547Z,32.03
2022-11-19T10:07:02.790Z,32.61
2022-11-19T10:09:56.419Z,32.66
2022-11-19T10:12:52.902Z,32.49
2022-11-19T10:15:37.579Z,32.71
2022-11-19T10:18:17.516Z,32.15
2022-11-19T10:21:04.667Z,32.94
2022-11-19T10:23:50.959Z,32.68
2022-11-19T10:26:29.941Z,32.36
2022-11-19T10:29:02.762Z,32.60
2022-11-19T10:31:39.607Z,32.69
2022-11-19T10:34:20.841Z,33.08
2022-11-19T10:36:59.718Z,32.48
2022-11-19T10:39:39.174Z,32.44
2022-11-19T10:42:21.878Z,32.84
2022-11-19T10:45:01.934Z,32.34
2022-11-19T10:47:40.690Z,32.68
2022-11-19T10:50:21.387Z,32.83
2022-11-19T10:52:58.191Z,32.77
2022-11-19T10:55:35.056Z,32.78
2022-11-19T10:58:18.692Z,33.04
2022-11-19T11:00:51.590Z,33.13
2022-11-19T11:03:29.421Z,33.02
2022-11-19T11:06:05.799Z,33.24
2022-11-19T11:08:49.299Z,32.74
2022-11-19T11:11:51.442Z,33.29
2022-11-19T11:14:41.859Z,33.12
2022-11-19T11:17:28.933Z,32.83
2022-11-19T11:20:03.539Z,32.72
2022-11-19T11:22:34.409Z,32.82
2022-11-19T11:25:07.607Z,33.16
2022-11-19T11:27:38.694Z,33.37
2022-11-19T11:30:20.366Z,33.01
2022-11-19T11:32:52.025Z,33.15
2022-11-19T11:35:36.970Z,33.34
2022-11-19T11:38:08.371Z,33.08
2022-11-19T11:40:39.887Z,33.13
2022-11-19T11:43:21.158Z,33.32
2022-11-19T11:46:00.580Z,33.02
2022-11-19T11:48:39.878Z,33.36
2022-11-19T11:51:10.441Z,33.35
2022-11-19T11:53:43.304Z,33.43
2022-11-19T11:56:14.076Z,33.16
2022-11-19T11:58:44.479Z,33.79
2022-11-19T12:01:18.782Z,33.46
2022-11-19T12:04:00.302Z,33.70
2022-11-19T12:06:43.289Z,33.55
2022-11-19T12:09:24.829Z,33.53
2022-11-19T12:12:05.400Z,33.19
2022-11-19T12:14:43.778Z,34.03
2022-11-19T12:17:45.580Z,33.81
2022-11-19T12:20:56.166Z,33.95
2022-11-19T12:23:55.628Z,33.76
2022-11-19T12:26:39.071Z,33.95
2022-11-19T12:29:27.004Z,33.81
2022-11-19T12:32:22.984Z,33.62
2022-11-19T12:35:28.918Z,34.16
2022-11-19T12:38:37.632Z,34.00
2022-11-19T12:41:46.492Z,33.72
2022-11-19T12:44:40.036Z,33.91
2022-11-19T12:47:31.369Z,33.77
2022-11-19T12:50:24.100Z,33.60
2022-11-19T12:53:35.325Z,34.12
2022-11-19T12:56:28.557Z,33.84
2022-11-19T12:59:14.821Z,33.66
2022-11-19T13:01:53.223Z,34.18
2022-11-19T13:04:32.614Z,34.08
2022-11-19T13:07:11.098Z,33.84
2022-11-19T13:09:49.950Z,33.63
2022-11-19T13:12:26.507Z,34.08
2022-11-19T13:15:03.604Z,33.98
2022-11-19T13:17:40.888Z,34.08
2022-11-19T13:20:22.277Z,33.78
2022-11-19T13:22:56.484Z,34.16
2022-11-19T13:25:33.590Z,34.28
2022-11-19T13:28:12.895Z,34.25
2022-11-19T13:30:47.915Z,34.43
2022-11-19T13:33:25.844Z,34.24
2022-11-19T13:36:04.093Z,34.46
2022-11-19T13:38:47.184Z,34.25
2022-11-19T13:41:27.075Z,34.53
2022-11-19T13:44:16.099Z,34.45
2022-11-19T13:46:52.573Z,34.29
2022-11-19T13:49:31.890Z,34.35
2022-11-19T13:52:09.659Z,34.62
2022-11-19T13:54:44.014Z,34.52
2022-11-19T13:57:32.009Z,34.63
2022-11-19T14:00:07.645Z,34.66
2022-11-19T14:03:20.403Z,34.34
2022-11-19T14:06:31.436Z,34.75
2022-11-19T14:09:22.488Z,34.76
2022-11-19T14:12:30.469Z,34.64
2022-11-19T14:16:04.668Z,35.03
2022-11-19T14:18:58.662Z,34.41
2022-11-19T14:22:17.846Z,35.07
2022-11-19T14:25:16.101Z,34.80
2022-11-19T14:27:47.827Z,34.90
2022-11-19T14:30:23.740Z,34.83
2022-11-19T14:32:55.563Z,35.03
2022-11-19T14:35:42.037Z,34.82
2022-11-19T14:38:50.583Z,35.13
2022-11-19T14:41:32.302Z,34.85
2022-11-19T14:44:10.324Z,35.22
2022-11-19T14:46:58.018Z,35.11
2022-11-19T14:49:36.429Z,35.13
2022-11-19T14:52:22.821Z,35.27
2022-11-19T14:54:59.689Z,34.87
2022-11-19T14:57:35.401Z,35.14
2022-11-19T15:00:10.225Z,35.27
2022-11-19T15:02:49.593Z,35.25
2022-11-19T15:05:24.230Z,35.45
2022-11-19T15:08:31.283Z,35.26
2022-11-19T15:11:11.891Z,35.46
2022-11-19T15:13:43.336Z,35.15
2022-11-19T15:16:18.763Z,35.37
2022-11-19T15:19:29.507Z,35.20
2022-11-19T15:22:31.146Z,35.41
2022-11-19T15:25:31.087Z,35.15
2022-11-19T15:28:22.504Z,35.32
2022-11-19T15:31:28.567Z,35.40
2022-11-19T15:34:49.242Z,35.39
2022-11-19T15:37:36.861Z,35.25
2022-11-19T15:40:14.514Z,35.24
2022-11-19T15:42:54.453Z,35.47
2022-11-19T15:45:27.609Z,35.37
2022-11-19T15:48:13.576Z,35.35
2022-11-19T15:50:47.738Z,35.41
2022-11-19T15:53:22.020Z,35.55
2022-11-19T15:55:58.232Z,35.27
2022-11-19T15:58:36.632Z,35.28
2022-11-19T16:01:08.024Z,35.44
2022-11-19T16:03:41.623Z,35.37
2022-11-19T16:09:09.097Z,35.45
2022-11-19T16:11:58.280Z,35.43
2022-11-19T16:14:47.858Z,35.40
2022-11-19T16:17:43.094Z,35.39
2022-11-19T16:20:23.239Z,35.30
2022-11-19T16:23:02.096Z,35.25
2022-11-19T16:25:50.613Z,35.25
2022-11-19T16:28:27.225Z,35.44
2022-11-19T16:31:05.211Z,35.25
2022-11-19T16:33:36.799Z,35.34
2022-11-19T16:36:19.217Z,35.34
2022-11-19T16:38:52.910Z,35.46
2022-11-19T16:41:44.722Z,35.10
2022-11-19T16:44:21.817Z,35.47
2022-11-19T16:46:53.708Z,35.15
2022-11-19T16:49:35.373Z,35.60
2022-11-19T16:52:08.107Z,35.33
2022-11-19T16:54:55.382Z,35.21
2022-11-19T16:57:31.606Z,35.34
2022-11-19T17:00:04.988Z,35.41
2022-11-19T17:02:42.464Z,35.60
2022-11-19T17:05:16.562Z,35.25
2022-11-19T17:07:53.018Z,35.43
2022-11-19T17:10:32.959Z,35.37
2022-11-19T17:13:16.892Z,35.17
2022-11-19T17:15:49.358Z,35.14
2022-11-19T17:18:23.873Z,35.21
2022-11-19T17:20:57.905Z,35.40
2022-11-19T17:23:30.417Z,35.19
2022-11-19T17:26:03.563Z,35.25
2022-11-19T17:28:52.642Z,35.21
2022-11-19T17:31:26.745Z,35.42
2022-11-19T17:33:58.938Z,34.91
2022-11-19T17:36:29.988Z,34.92
2022-11-19T17:39:00.798Z,35.01
2022-11-19T17:41:49.115Z,35.02
2022-11-19T17:44:39.562Z,34.96
2022-11-19T17:47:23.213Z,35.20
2022-11-19T17:49:55.277Z,35.13
2022-11-19T17:52:28.307Z,34.92
2022-11-19T17:55:06.328Z,35.07
2022-11-19T17:57:42.187Z,35.06
2022-11-19T18:00:17.924Z,34.96
2022-11-19T18:02:49.708Z,35.01
2022-11-19T18:05:26.658Z,35.01
2022-11-19T18:07:57.505Z,34.96
2022-11-19T18:10:28.984Z,34.91
2022-11-19T18:12:59.379Z,34.76
2022-11-19T18:15:32.765Z,34.79
2022-11-19T18:18:03.018Z,34.78
2022-11-19T18:20:32.943Z,34.91
2022-11-19T18:23:04.156Z,34.85
2022-11-19T18:25:34.998Z,34.86
2022-11-19T18:28:06.332Z,34.92
2022-11-19T18:30:39.480Z,35.04
2022-11-19T18:33:12.113Z,34.72
2022-11-19T18:35:42.529Z,34.83
2022-11-19T18:38:13.330Z,34.88
2022-11-19T18:40:43.903Z,34.52
2022-11-19T18:43:30.569Z,34.64
2022-11-19T18:46:03.219Z,34.71
2022-11-19T18:48:41.300Z,34.87
2022-11-19T18:51:15.086Z,34.76
2022-11-19T18:53:46.989Z,34.79
2022-11-19T18:56:19.880Z,34.82
2022-11-19T18:58:51.712Z,34.86
2022-11-19T19:01:24.568Z,34.71
2022-11-19T19:03:55.360Z,34.45
2022-11-19T19:06:27.471Z,34.73
2022-11-19T19:08:58.549Z,34.57
2022-11-19T19:11:45.177Z,35.04
2022-11-19T19:14:16.723Z,34.65
2022-11-19T19:16:49.005Z,34.71
2022-11-19T19:19:20.910Z,34.75
2022-11-19T19:21:51.545Z,34.70
2022-11-19T19:24:22.442Z,34.59
2022-11-19T19:26:53.126Z,34.67
2022-11-19T19:29:24.037Z,34.69
2022-11-19T19:31:57.658Z,34.42
2022-11-19T19:34:28.521Z,34.48
2022-11-19T19:37:02.800Z,34.56
2022-11-19T19:39:33.716Z,34.58
2022-11-19T19:42:04.482Z,34.52
2022-11-19T19:44:35.219Z,34.53
2022-11-19T19:47:08.386Z,34.58
2022-11-19T19:49:39.879Z,34.59
2022-11-19T19:52:10.831Z,34.54
2022-11-19T19:54:43.337Z,34.48
2022-11-19T19:57:13.518Z,34.40
2022-11-19T19:59:44.492Z,34.54
2022-11-19T20:02:17.701Z,34.44
2022-11-19T20:04:49.878Z,34.42
2022-11-19T20:07:20.722Z,34.45
2022-11-19T20:09:50.492Z,34.43
2022-11-19T20:12:20.522Z,34.43
2022-11-19T20:14:51.146Z,34.46
2022-11-19T20:17:23.830Z,34.53
2022-11-19T20:19:54.586Z,34.38
2022-11-19T20:22:33.644Z,34.50
2022-11-19T20:25:04.244Z,34.50
2022-11-19T20:27:34.986Z,34.34
2022-11-19T20:30:05.913Z,34.52
2022-11-19T20:32:44.682Z,34.52
2022-11-19T20:35:18.490Z,34.33
2022-11-19T20:37:50.078Z,34.53
2022-11-19T20:40:21.034Z,34.58
2022-11-19T20:43:07.992Z,34.43
2022-11-19T20:45:54.181Z,34.28
2022-11-19T20:48:26.844Z,34.53
2022-11-19T20:53:45.649Z,34.45
2022-11-19T20:56:16.483Z,34.27
2022-11-19T20:58:47.362Z,34.34
2022-11-19T21:01:18.021Z,34.25
2022-11-19T21:03:51.005Z,34.45
2022-11-19T21:06:22.350Z,34.41
2022-11-19T21:08:53.295Z,34.33
2022-11-19T21:11:24.597Z,34.25
2022-11-19T21:13:55.411Z,34.46
2022-11-19T21:16:29.103Z,34.28
2022-11-19T21:19:01.339Z,34.28
2022-11-19T21:21:32.691Z,34.40
2022-11-19T21:24:04.149Z,34.30
2022-11-19T21:26:47.474Z,34.20
2022-11-19T21:29:25.502Z,34.24
2022-11-19T21:31:55.976Z,34.19
2022-11-19T21:34:28.790Z,34.34
2022-11-19T21:36:59.513Z,34.43
2022-11-19T21:39:30.177Z,34.24
2022-11-19T21:42:00.310Z,33.93
2022-11-19T21:44:33.154Z,34.52
2022-11-19T21:47:16.405Z,34.15
2022-11-19T21:49:48.522Z,34.27
2022-11-19T21:52:18.959Z,34.16
2022-11-19T21:54:49.643Z,34.19
2022-11-19T21:57:20.247Z,34.28
2022-11-19T21:59:50.234Z,34.35
2022-11-19T22:02:20.886Z,34.22
2022-11-19T22:04:52.985Z,34.11
2022-11-19T22:07:23.106Z,34.34
2022-11-19T22:09:54.119Z,34.08
2022-11-19T22:12:24.854Z,34.28
2022-11-19T22:14:55.617Z,34.41
2022-11-19T22:17:31.505Z,34.20
2022-11-19T22:20:04.948Z,34.14
2022-11-19T22:22:35.615Z,34.24
2022-11-19T22:25:06.176Z,34.32
2022-11-19T22:27:36.672Z,34.04
2022-11-19T22:30:08.815Z,33.94
2022-11-19T22:32:39.775Z,34.16
2022-11-19T22:35:12.456Z,33.93
2022-11-19T22:37:42.678Z,34.15
2022-11-19T22:40:13.905Z,34.18
2022-11-19T22:42:43.763Z,34.20
2022-11-19T22:45:14.110Z,34.23
2022-11-19T22:47:44.243Z,34.00
2022-11-19T22:50:16.949Z,34.07
2022-11-19T22:52:47.243Z,34.26
2022-11-19T22:55:17.461Z,34.02
2022-11-19T22:57:47.627Z,34.00
2022-11-19T23:00:46.790Z,34.11
2022-11-19T23:03:17.588Z,34.04
2022-11-19T23:05:52.193Z,33.89
2022-11-19T23:08:23.188Z,34.06
2022-11-19T23:11:00.872Z,34.12
2022-11-19T23:13:34.943Z,34.06
2022-11-19T23:16:11.217Z,34.06
2022-11-19T23:18:44.578Z,33.98
2022-11-19T23:21:19.207Z,34.09
2022-11-19T23:23:50.309Z,34.03
2022-11-19T23:26:23.834Z,33.94
2022-11-19T23:28:55.286Z,33.98
2022-11-19T23:31:29.618Z,33.98
2022-11-19T23:34:00.275Z,33.94
2022-11-19T23:36:32.862Z,33.75
2022-11-19T23:39:03.314Z,33.94
2022-11-19T23:41:35.163Z,34.13
2022-11-19T23:44:06.009Z,33.96
2022-11-19T23:46:38.603Z,33.99
2022-11-19T23:49:09.297Z,34.07
2022-11-19T23:51:41.184Z,33.74
2022-11-19T23:54:14.757Z,33.70
2022-11-19T23:56:45.463Z,33.87
2022-11-19T23:59:15.645Z,33.90
